Time;durP1;ratioP1;P1;durP2;ratioP2;P2;SDS_P1;SDS_P2;PMS_P1;PMS_P2;Temp;Humidity;BMP_temperature;BMP_pressure;BME280_temperature;BME280_humidity;BME280_pressure;Samples;Min_cycle;Max_cycle;Signal;HPM_P1;HPM_P2
2023/03/23 00:01:51;;;;;;;23.70;17.17;;;12.20;62.10;;;;;;5077604;28;20065;-79
2023/03/23 00:04:17;;;;;;;25.27;18.50;;;12.20;62.10;;;;;;5095629;28;20043;-79
2023/03/23 00:06:45;;;;;;;24.00;18.10;;;12.20;62.10;;;;;;5095485;28;20035;-78
2023/03/23 00:09:12;;;;;;;24.27;17.73;;;12.20;62.10;;;;;;5076797;28;20107;-78
2023/03/23 00:11:39;;;;;;;25.60;18.65;;;12.20;62.20;;;;;;5095245;28;20087;-78
2023/03/23 00:14:04;;;;;;;25.00;18.58;;;12.20;62.20;;;;;;5095791;28;20032;-78
2023/03/23 00:16:32;;;;;;;25.52;18.98;;;12.20;62.30;;;;;;5095199;28;20385;-79
2023/03/23 00:19:04;;;;;;;25.95;19.20;;;12.20;62.30;;;;;;5095774;28;20028;-78
2023/03/23 00:21:34;;;;;;;26.17;19.60;;;12.20;62.30;;;;;;5078831;28;20028;-79
2023/03/23 00:24:15;;;;;;;27.00;20.55;;;12.10;62.20;;;;;;5095626;28;20122;-80
2023/03/23 00:26:43;;;;;;;27.48;19.65;;;12.10;62.30;;;;;;5095405;28;20020;-78
2023/03/23 00:29:25;;;;;;;28.65;19.92;;;12.10;62.30;;;;;;5095298;28;20389;-80
2023/03/23 00:31:52;;;;;;;27.40;20.77;;;12.10;62.40;;;;;;5077756;28;20024;-79
2023/03/23 00:34:21;;;;;;;30.00;22.35;;;12.10;62.40;;;;;;5076539;28;20044;-79
2023/03/23 00:36:49;;;;;;;26.08;19.88;;;12.10;62.40;;;;;;5094970;28;20437;-79
2023/03/23 00:39:16;;;;;;;29.30;21.50;;;12.10;62.40;;;;;;5076677;28;20038;-78
2023/03/23 00:41:42;;;;;;;30.48;21.08;;;12.10;62.50;;;;;;5094880;28;20030;-78
2023/03/23 00:44:08;;;;;;;30.20;22.20;;;12.10;62.40;;;;;;5076648;28;20028;-77
2023/03/23 00:46:34;;;;;;;28.08;21.90;;;12.10;62.40;;;;;;5077739;28;20032;-77
2023/03/23 00:49:00;;;;;;;29.92;21.92;;;12.00;62.50;;;;;;5094865;28;20032;-78
2023/03/23 00:51:25;;;;;;;27.55;20.92;;;12.00;62.50;;;;;;5094800;28;20032;-77
2023/03/23 00:53:51;;;;;;;29.50;22.17;;;12.00;62.50;;;;;;5094638;28;20043;-77
2023/03/23 00:56:17;;;;;;;28.40;21.38;;;12.00;62.50;;;;;;5094684;28;20032;-77
2023/03/23 00:58:43;;;;;;;28.73;21.23;;;12.00;62.60;;;;;;5094585;28;20081;-78
2023/03/23 01:01:09;;;;;;;30.73;22.80;;;12.00;62.70;;;;;;5094757;28;20020;-78
2023/03/23 01:03:36;;;;;;;29.02;21.85;;;12.00;62.60;;;;;;5094855;28;20024;-79
2023/03/23 01:06:12;;;;;;;27.92;21.05;;;12.00;62.60;;;;;;5094669;28;20347;-78
2023/03/23 01:08:44;;;;;;;26.80;20.65;;;12.00;62.60;;;;;;5076237;28;20047;-78
2023/03/23 01:11:13;;;;;;;29.55;22.27;;;12.00;62.60;;;;;;5076284;28;20032;-77
2023/03/23 01:13:40;;;;;;;30.02;22.35;;;12.00;62.50;;;;;;5094516;28;20090;-77
2023/03/23 01:16:06;;;;;;;28.45;20.95;;;11.90;62.50;;;;;;5076147;28;20028;-78
2023/03/23 01:18:32;;;;;;;27.50;20.00;;;11.90;62.50;;;;;;5094165;28;20036;-78
2023/03/23 01:20:57;;;;;;;26.33;21.10;;;11.90;62.40;;;;;;5076072;28;20086;-77
2023/03/23 01:23:23;;;;;;;25.83;20.17;;;11.90;62.40;;;;;;5094401;28;20026;-77
2023/03/23 01:25:49;;;;;;;28.98;20.20;;;11.90;62.40;;;;;;5094389;28;20028;-77
2023/03/23 01:28:15;;;;;;;25.88;20.52;;;11.80;62.40;;;;;;5094103;28;20382;-78
2023/03/23 01:30:41;;;;;;;29.48;20.70;;;11.80;62.40;;;;;;5094294;28;20106;-79
2023/03/23 01:33:06;;;;;;;27.02;20.35;;;11.80;62.40;;;;;;5074836;28;20035;-78
2023/03/23 01:35:32;;;;;;;26.02;20.58;;;11.80;62.40;;;;;;5110819;28;20075;-78
2023/03/23 01:37:58;;;;;;;25.48;20.48;;;11.80;62.40;;;;;;5114270;28;20452;-78
2023/03/23 01:40:26;;;;;;;28.25;21.38;;;11.80;62.40;;;;;;5095772;28;20136;-78
2023/03/23 01:42:52;;;;;;;27.15;20.52;;;11.70;62.40;;;;;;5114513;28;20016;-78
2023/03/23 01:45:23;;;;;;;26.55;19.73;;;11.70;62.40;;;;;;5114369;28;20026;-81
2023/03/23 01:48:17;;;;;;;25.60;19.23;;;11.80;62.40;;;;;;5114310;28;20028;-78
2023/03/23 01:51:04;;;;;;;26.83;18.02;;;11.70;62.40;;;;;;5090090;28;20043;-78
2023/03/23 01:53:36;;;;;;;26.67;19.52;;;11.70;62.50;;;;;;5114384;28;20055;-79
2023/03/23 01:56:02;;;;;;;24.58;19.17;;;11.70;62.50;;;;;;5113909;28;20024;-77
2023/03/23 01:58:32;;;;;;;23.00;17.85;;;11.70;62.50;;;;;;5114256;28;20102;-79
2023/03/23 02:01:01;;;;;;;26.27;18.40;;;11.60;62.50;;;;;;5113375;28;20020;-78
2023/03/23 02:03:30;;;;;;;23.35;18.85;;;11.70;62.60;;;;;;5113354;28;20023;-78
2023/03/23 02:05:58;;;;;;;24.60;18.38;;;11.70;62.70;;;;;;5114430;28;20362;-78
2023/03/23 02:08:26;;;;;;;22.27;17.13;;;11.60;62.70;;;;;;5113502;28;20034;-78
2023/03/23 02:10:52;;;;;;;24.70;18.25;;;11.60;62.70;;;;;;5095379;28;20110;-78
2023/03/23 02:13:18;;;;;;;22.40;17.73;;;11.60;62.70;;;;;;5113778;28;20062;-78
2023/03/23 02:16:04;;;;;;;22.63;17.95;;;11.60;62.70;;;;;;5113353;28;20385;-78
2023/03/23 02:18:34;;;;;;;20.95;15.48;;;11.60;62.70;;;;;;5114245;28;20473;-79
2023/03/23 02:21:32;;;;;;;24.08;18.25;;;11.60;62.70;;;;;;5114025;28;20027;-79
2023/03/23 02:24:16;;;;;;;23.45;17.40;;;11.60;62.80;;;;;;5113981;28;20030;-79
2023/03/23 02:27:08;;;;;;;22.23;17.10;;;11.60;62.90;;;;;;5113692;28;20102;-79
2023/03/23 02:29:34;;;;;;;21.60;17.52;;;11.60;63.00;;;;;;5113740;28;20483;-79
2023/03/23 02:32:08;;;;;;;25.40;18.70;;;11.60;63.10;;;;;;5113572;28;20035;-79
2023/03/23 02:34:52;;;;;;;26.13;19.50;;;11.60;63.10;;;;;;5113008;28;20136;-78
2023/03/23 02:37:30;;;;;;;23.20;18.52;;;11.50;63.20;;;;;;5112562;28;20032;-80
2023/03/23 02:40:13;;;;;;;24.20;18.67;;;11.50;63.30;;;;;;5112803;28;20027;-79
2023/03/23 02:42:43;;;;;;;25.02;19.17;;;11.50;63.40;;;;;;5079034;28;20024;-78
2023/03/23 02:45:10;;;;;;;24.40;19.80;;;11.50;63.30;;;;;;5115855;28;20024;-78
2023/03/23 02:47:39;;;;;;;25.98;20.15;;;11.60;63.40;;;;;;5116671;28;20532;-79
2023/03/23 02:50:09;;;;;;;25.10;18.73;;;11.60;63.40;;;;;;5116360;28;20027;-77
2023/03/23 02:52:37;;;;;;;25.98;20.05;;;11.60;63.40;;;;;;5116279;28;20038;-77
2023/03/23 02:55:05;;;;;;;26.63;19.13;;;11.60;63.40;;;;;;5116205;28;20069;-77
2023/03/23 02:57:31;;;;;;;25.55;19.40;;;11.60;63.40;;;;;;5116113;28;20031;-78
2023/03/23 02:59:57;;;;;;;24.98;19.65;;;11.60;63.40;;;;;;5116250;28;20034;-78
2023/03/23 03:02:27;;;;;;;25.42;20.00;;;11.60;63.40;;;;;;5116088;28;20024;-78
2023/03/23 03:04:59;;;;;;;25.23;19.27;;;11.60;63.40;;;;;;5097651;28;20465;-78
2023/03/23 03:07:48;;;;;;;25.98;19.70;;;11.60;63.50;;;;;;5098042;28;20027;-78
2023/03/23 03:10:18;;;;;;;25.98;19.23;;;11.60;63.60;;;;;;5097743;28;20376;-78
2023/03/23 03:13:03;;;;;;;24.20;18.60;;;11.60;63.50;;;;;;5116073;28;20496;-78
2023/03/23 03:15:33;;;;;;;24.38;18.70;;;11.60;63.50;;;;;;5116040;28;20032;-78
2023/03/23 03:18:05;;;;;;;24.65;18.52;;;11.60;63.60;;;;;;5115755;28;20461;-78
2023/03/23 03:20:32;;;;;;;24.48;18.33;;;11.60;63.60;;;;;;5115621;28;20534;-79
2023/03/23 03:23:00;;;;;;;24.13;17.33;;;11.60;63.50;;;;;;5115892;28;20107;-77
2023/03/23 03:25:27;;;;;;;21.80;16.70;;;11.60;63.60;;;;;;5115674;28;20040;-77
2023/03/23 03:27:56;;;;;;;21.67;17.50;;;11.60;63.60;;;;;;5097787;28;20037;-78
2023/03/23 03:30:26;;;;;;;23.38;17.27;;;11.60;63.60;;;;;;5114950;28;20023;-79
2023/03/23 03:32:55;;;;;;;19.80;16.58;;;11.60;63.60;;;;;;5096832;28;20028;-79
2023/03/23 03:35:23;;;;;;;22.58;18.15;;;11.50;63.50;;;;;;5050486;28;1340275;-78
2023/03/23 03:37:48;;;;;;;23.70;17.13;;;11.60;63.60;;;;;;5116724;28;20415;-79
2023/03/23 03:40:17;;;;;;;21.85;16.10;;;11.60;63.60;;;;;;5116578;28;20032;-78
2023/03/23 03:42:45;;;;;;;22.50;16.85;;;11.50;63.60;;;;;;5116693;28;20062;-78
2023/03/23 03:45:16;;;;;;;21.90;16.20;;;11.60;63.60;;;;;;5116293;28;20084;-78
2023/03/23 03:47:42;;;;;;;22.70;16.58;;;11.60;63.60;;;;;;5116160;28;20059;-78
2023/03/23 03:50:08;;;;;;;19.75;15.00;;;11.60;63.60;;;;;;5098220;28;20466;-78
2023/03/23 03:52:34;;;;;;;19.77;15.88;;;11.50;63.40;;;;;;5116418;28;20027;-79
2023/03/23 03:55:00;;;;;;;21.08;16.02;;;11.60;63.50;;;;;;5080095;28;20039;-79
2023/03/23 03:57:26;;;;;;;18.70;15.13;;;11.60;63.40;;;;;;5116187;28;20087;-78
2023/03/23 03:59:52;;;;;;;19.77;15.75;;;11.60;63.40;;;;;;5097788;28;20028;-79
2023/03/23 04:02:19;;;;;;;20.20;15.32;;;11.60;63.40;;;;;;5115893;28;20380;-78
2023/03/23 04:04:51;;;;;;;20.83;15.80;;;11.50;63.40;;;;;;5097952;28;20020;-79
2023/03/23 04:07:17;;;;;;;19.70;15.57;;;11.50;63.30;;;;;;5116026;28;20028;-79
2023/03/23 04:09:47;;;;;;;19.52;15.10;;;11.50;63.40;;;;;;5115732;28;20027;-79
2023/03/23 04:12:16;;;;;;;18.25;14.20;;;11.50;63.30;;;;;;5115981;28;20035;-78
2023/03/23 04:14:44;;;;;;;19.52;14.80;;;11.50;63.30;;;;;;5097599;28;20027;-80
2023/03/23 04:17:09;;;;;;;17.92;13.98;;;11.50;63.30;;;;;;5115574;28;20036;-79
2023/03/23 04:19:37;;;;;;;19.30;14.38;;;11.50;63.30;;;;;;5115899;28;20050;-78
2023/03/23 04:22:04;;;;;;;19.60;15.48;;;11.50;63.20;;;;;;5097278;28;20023;-79
2023/03/23 04:24:31;;;;;;;18.38;14.55;;;11.50;63.20;;;;;;5115933;28;20027;-79
2023/03/23 04:26:57;;;;;;;19.27;14.57;;;11.50;63.10;;;;;;5115597;28;20027;-80
2023/03/23 04:29:23;;;;;;;18.90;13.82;;;11.50;63.10;;;;;;5097911;28;20035;-79
2023/03/23 04:31:50;;;;;;;18.90;14.77;;;11.50;63.10;;;;;;5115107;28;20032;-78
2023/03/23 04:34:16;;;;;;;19.17;15.25;;;11.50;63.10;;;;;;5109558;28;20383;-78
2023/03/23 04:36:42;;;;;;;17.70;14.13;;;11.50;63.10;;;;;;5095064;28;20032;-78
2023/03/23 04:39:09;;;;;;;17.05;13.27;;;11.50;63.00;;;;;;5094579;28;20042;-79
2023/03/23 04:41:39;;;;;;;16.95;13.52;;;11.60;63.10;;;;;;5094888;28;20017;-78
2023/03/23 04:44:05;;;;;;;17.67;13.45;;;11.60;63.10;;;;;;5076757;28;20020;-79
2023/03/23 04:46:31;;;;;;;15.82;12.93;;;11.60;63.10;;;;;;5094772;28;20420;-79
2023/03/23 04:49:00;;;;;;;15.98;12.52;;;11.60;63.10;;;;;;5076384;28;20145;-78
2023/03/23 04:51:28;;;;;;;15.60;12.30;;;11.60;63.00;;;;;;5076494;28;20500;-78
2023/03/23 04:53:53;;;;;;;15.15;12.60;;;11.60;63.00;;;;;;5094897;28;20024;-78
2023/03/23 04:56:20;;;;;;;14.20;11.93;;;11.70;63.10;;;;;;5094409;28;20519;-79
2023/03/23 04:58:46;;;;;;;15.63;11.60;;;11.70;63.10;;;;;;5094665;28;20036;-78
2023/03/23 05:01:13;;;;;;;14.70;11.68;;;11.70;63.00;;;;;;5086613;28;20024;-78
2023/03/23 05:03:40;;;;;;;15.32;12.32;;;11.70;63.10;;;;;;5082162;28;20039;-81
2023/03/23 05:06:06;;;;;;;14.93;11.80;;;11.70;63.00;;;;;;5083850;28;20057;-78
2023/03/23 05:08:32;;;;;;;16.52;11.98;;;11.70;63.00;;;;;;5082589;28;20518;-78
2023/03/23 05:11:00;;;;;;;13.02;10.55;;;11.70;62.90;;;;;;5066815;28;20103;-79
2023/03/23 05:13:28;;;;;;;14.73;12.05;;;11.80;63.00;;;;;;5064707;28;20027;-78
2023/03/23 05:15:53;;;;;;;14.98;11.85;;;11.80;62.90;;;;;;5082833;28;20102;-79
2023/03/23 05:18:21;;;;;;;17.00;13.07;;;11.80;62.90;;;;;;5065938;28;20055;-78
2023/03/23 05:20:48;;;;;;;15.20;12.02;;;11.80;62.90;;;;;;5088007;28;20470;-77
2023/03/23 05:23:14;;;;;;;15.95;12.48;;;11.80;62.90;;;;;;5082801;28;20021;-79
2023/03/23 05:25:41;;;;;;;15.45;11.88;;;11.90;62.90;;;;;;5072981;28;20051;-78
2023/03/23 05:28:08;;;;;;;14.82;12.65;;;11.90;62.90;;;;;;5054708;28;20113;-83
2023/03/23 05:30:35;;;;;;;14.52;11.35;;;11.90;63.00;;;;;;5072673;28;20426;-84
2023/03/23 05:33:01;;;;;;;15.48;11.27;;;11.90;63.00;;;;;;5054729;28;20119;-80
2023/03/23 05:35:27;;;;;;;13.07;11.10;;;11.90;63.10;;;;;;5051267;28;20048;-85
2023/03/23 05:37:53;;;;;;;13.43;9.98;;;11.90;63.10;;;;;;5072959;28;20430;-80
2023/03/23 05:40:20;;;;;;;14.73;11.40;;;12.00;63.10;;;;;;5081804;28;20716;-84
2023/03/23 05:42:47;;;;;;;12.82;10.27;;;12.00;63.10;;;;;;5082415;28;20039;-82
2023/03/23 05:45:13;;;;;;;12.10;10.15;;;12.00;63.10;;;;;;5078855;28;20035;-86
2023/03/23 05:47:40;;;;;;;16.55;10.38;;;12.00;63.10;;;;;;5080467;28;20081;-87
2023/03/23 05:50:08;;;;;;;13.95;10.23;;;12.10;63.10;;;;;;5082187;28;20021;-88
2023/03/23 05:52:35;;;;;;;14.02;10.45;;;12.10;63.10;;;;;;5080643;28;20020;-87
2023/03/23 05:55:03;;;;;;;13.02;10.85;;;12.10;63.10;;;;;;5082364;28;20024;-89
2023/03/23 05:57:29;;;;;;;13.07;10.98;;;12.10;63.10;;;;;;5088551;28;20027;-89
2023/03/23 05:59:55;;;;;;;13.05;9.77;;;12.20;63.10;;;;;;5092112;28;20039;-89
2023/03/23 06:02:23;;;;;;;13.27;10.80;;;12.20;63.20;;;;;;5093135;28;20029;-89
2023/03/23 06:04:48;;;;;;;12.30;10.35;;;12.20;63.20;;;;;;5091449;28;20028;-88
2023/03/23 06:07:15;;;;;;;12.43;10.75;;;12.20;63.10;;;;;;5084551;28;20077;-80
2023/03/23 06:09:41;;;;;;;12.85;10.77;;;12.20;63.20;;;;;;5080882;28;20037;-84
2023/03/23 06:12:09;;;;;;;13.80;10.68;;;12.30;63.20;;;;;;5074000;28;20020;-74
2023/03/23 06:14:35;;;;;;;13.80;11.32;;;12.30;63.20;;;;;;5077103;28;20028;-78
2023/03/23 06:17:01;;;;;;;14.95;11.52;;;12.30;63.20;;;;;;5079641;28;20398;-73
2023/03/23 06:19:27;;;;;;;13.02;10.63;;;12.30;63.20;;;;;;5082658;28;20037;-80
2023/03/23 06:21:55;;;;;;;13.30;10.98;;;12.40;63.30;;;;;;5084054;28;20033;-81
2023/03/23 06:24:21;;;;;;;12.95;11.32;;;12.40;63.30;;;;;;5086085;28;20037;-79
2023/03/23 06:26:47;;;;;;;13.75;10.30;;;12.40;63.30;;;;;;5082721;28;20040;-83
2023/03/23 06:29:13;;;;;;;13.07;10.30;;;12.40;63.30;;;;;;5085786;28;20112;-81
2023/03/23 06:31:47;;;;;;;13.80;11.07;;;12.40;63.40;;;;;;5085509;28;20028;-84
2023/03/23 06:34:13;;;;;;;12.65;10.15;;;12.50;63.40;;;;;;5086072;28;20044;-88
2023/03/23 06:36:38;;;;;;;12.32;10.18;;;12.50;63.40;;;;;;5104928;28;20039;-85
2023/03/23 06:39:05;;;;;;;11.95;10.00;;;12.50;63.50;;;;;;5088376;28;20016;-82
2023/03/23 06:41:33;;;;;;;12.57;10.15;;;12.50;63.50;;;;;;5105025;28;20028;-87
2023/03/23 06:44:00;;;;;;;12.95;10.20;;;12.50;63.50;;;;;;5105028;28;20369;-84
2023/03/23 06:46:26;;;;;;;13.50;10.13;;;12.60;63.60;;;;;;5100981;28;20036;-80
2023/03/23 06:48:51;;;;;;;13.25;10.40;;;12.60;63.60;;;;;;5101553;28;20429;-80
2023/03/23 06:51:18;;;;;;;12.57;10.20;;;12.60;63.60;;;;;;5103918;28;20059;-75
2023/03/23 06:53:44;;;;;;;12.68;10.52;;;12.70;63.70;;;;;;5086457;28;20024;-77
2023/03/23 06:56:11;;;;;;;13.15;10.23;;;12.70;63.60;;;;;;5104674;28;20093;-79
2023/03/23 06:58:37;;;;;;;13.30;10.80;;;12.80;63.70;;;;;;5084798;28;20028;-77
2023/03/23 07:01:03;;;;;;;12.95;10.80;;;12.80;63.70;;;;;;5091511;28;20028;-78
2023/03/23 07:03:30;;;;;;;13.38;10.65;;;12.80;63.70;;;;;;5085545;28;20171;-77
2023/03/23 07:05:56;;;;;;;11.73;9.65;;;12.90;63.80;;;;;;5106707;28;20489;-77
2023/03/23 07:08:22;;;;;;;13.27;10.60;;;12.90;63.70;;;;;;5098919;28;20052;-81
2023/03/23 07:10:52;;;;;;;11.70;9.93;;;12.90;63.70;;;;;;5102831;28;20661;-78
2023/03/23 07:13:18;;;;;;;12.98;9.90;;;12.90;63.70;;;;;;5093679;28;20049;-76
2023/03/23 07:15:43;;;;;;;11.95;10.13;;;13.00;63.70;;;;;;5104739;28;20019;-79
2023/03/23 07:18:09;;;;;;;13.75;10.90;;;13.00;63.70;;;;;;5105380;28;20378;-77
2023/03/23 07:20:35;;;;;;;12.43;10.23;;;13.10;63.70;;;;;;5103924;28;20115;-77
2023/03/23 07:23:02;;;;;;;11.73;9.77;;;13.10;64.30;;;;;;5108721;28;20019;-77
2023/03/23 07:25:28;;;;;;;12.52;10.35;;;13.20;63.70;;;;;;5116117;28;20102;-77
2023/03/23 07:27:54;;;;;;;11.68;9.95;;;13.20;63.70;;;;;;5116022;28;20111;-74
2023/03/23 07:30:20;;;;;;;12.15;10.38;;;13.20;63.70;;;;;;5095134;28;20116;-76
2023/03/23 07:32:46;;;;;;;11.57;9.77;;;13.30;63.70;;;;;;5095108;28;20129;-76
2023/03/23 07:35:12;;;;;;;10.88;9.20;;;13.30;63.60;;;;;;5081223;28;20493;-76
2023/03/23 07:37:37;;;;;;;15.07;11.40;;;13.40;63.70;;;;;;5075858;28;20382;-76
2023/03/23 07:40:14;;;;;;;11.68;10.07;;;13.40;63.70;;;;;;5074656;28;20028;-76
2023/03/23 07:42:44;;;;;;;11.60;9.13;;;13.40;63.60;;;;;;5058177;28;20028;-76
2023/03/23 07:45:11;;;;;;;12.45;10.50;;;13.50;63.60;;;;;;5057811;28;20133;-75
2023/03/23 07:47:38;;;;;;;12.70;10.48;;;13.60;63.60;;;;;;5075859;28;20036;-76
2023/03/23 07:50:04;;;;;;;12.30;10.60;;;13.60;63.50;;;;;;5057963;28;20033;-75
2023/03/23 07:52:30;;;;;;;12.43;10.13;;;13.60;63.50;;;;;;5075995;28;20028;-76
2023/03/23 07:54:56;;;;;;;11.95;10.00;;;13.70;63.50;;;;;;5041117;28;20029;-76
2023/03/23 07:57:22;;;;;;;11.25;9.65;;;13.70;63.40;;;;;;5075754;28;20493;-76
2023/03/23 07:59:48;;;;;;;11.57;9.88;;;13.80;63.40;;;;;;5076003;28;20028;-76
2023/03/23 08:02:14;;;;;;;11.43;9.82;;;13.80;63.40;;;;;;5076386;28;20497;-76
2023/03/23 08:04:39;;;;;;;11.85;9.57;;;13.90;63.40;;;;;;5075703;28;20025;-76
2023/03/23 08:07:05;;;;;;;13.77;10.60;;;13.90;63.40;;;;;;5057720;28;20515;-76
2023/03/23 08:09:31;;;;;;;11.07;9.05;;;14.00;63.30;;;;;;5075759;28;20029;-75
2023/03/23 08:11:57;;;;;;;10.77;8.93;;;14.00;63.40;;;;;;5075403;28;20486;-76
2023/03/23 08:14:27;;;;;;;10.55;8.50;;;14.10;63.40;;;;;;5075494;28;20035;-76
2023/03/23 08:16:55;;;;;;;11.52;8.73;;;14.10;63.30;;;;;;5075691;28;20024;-76
2023/03/23 08:19:20;;;;;;;11.30;9.35;;;14.10;63.30;;;;;;5075381;28;20470;-75
2023/03/23 08:21:46;;;;;;;10.73;8.57;;;14.10;63.30;;;;;;5057453;28;20028;-76
2023/03/23 08:24:13;;;;;;;10.63;8.75;;;14.20;63.90;;;;;;5075201;28;20025;-77
2023/03/23 08:26:38;;;;;;;10.90;8.77;;;14.20;63.30;;;;;;5075029;28;20032;-75
2023/03/23 08:29:04;;;;;;;11.00;8.95;;;14.20;63.20;;;;;;5075717;28;20032;-76
2023/03/23 08:31:30;;;;;;;9.73;8.15;;;14.30;63.30;;;;;;5075313;28;20039;-77
2023/03/23 08:33:56;;;;;;;11.10;8.55;;;14.30;63.20;;;;;;5074986;28;20053;-76
2023/03/23 08:36:23;;;;;;;10.40;8.32;;;14.40;63.20;;;;;;5074778;28;20090;-75
2023/03/23 08:38:51;;;;;;;10.43;8.52;;;14.40;63.20;;;;;;5074605;28;20030;-75
2023/03/23 08:41:17;;;;;;;10.55;8.65;;;14.40;63.10;;;;;;5074555;28;20017;-75
2023/03/23 08:43:43;;;;;;;9.23;7.88;;;14.50;63.10;;;;;;5057307;28;20024;-76
2023/03/23 08:46:10;;;;;;;12.20;9.60;;;14.60;63.00;;;;;;5074989;28;20090;-75
2023/03/23 08:48:38;;;;;;;11.18;9.23;;;14.60;62.90;;;;;;5075034;28;20028;-76
2023/03/23 08:51:05;;;;;;;11.63;9.20;;;14.70;62.80;;;;;;5074569;28;20062;-76
2023/03/23 08:53:31;;;;;;;12.73;9.43;;;14.80;62.80;;;;;;5074527;28;20032;-76
2023/03/23 08:56:04;;;;;;;9.43;8.15;;;14.80;62.70;;;;;;5056398;28;20386;-77
2023/03/23 08:58:30;;;;;;;11.15;9.15;;;14.90;62.60;;;;;;5074615;28;20024;-76
2023/03/23 09:00:55;;;;;;;11.70;9.75;;;15.00;62.60;;;;;;5074360;28;20454;-76
2023/03/23 09:03:24;;;;;;;10.82;8.98;;;15.00;62.40;;;;;;5074563;28;20027;-76
2023/03/23 09:05:50;;;;;;;11.45;9.52;;;15.20;62.40;;;;;;5074465;28;20091;-76
2023/03/23 09:08:15;;;;;;;11.88;9.35;;;15.20;62.20;;;;;;5056310;28;20069;-75
2023/03/23 09:10:41;;;;;;;13.20;9.35;;;15.30;62.10;;;;;;5074112;28;20056;-75
2023/03/23 09:13:07;;;;;;;11.50;10.13;;;15.40;62.00;;;;;;5074491;28;20097;-76
2023/03/23 09:15:33;;;;;;;10.70;9.35;;;15.50;61.90;;;;;;5056406;28;20032;-76
2023/03/23 09:18:00;;;;;;;10.07;8.38;;;15.50;61.80;;;;;;5074052;28;20094;-76
2023/03/23 09:20:27;;;;;;;10.77;9.63;;;15.60;61.70;;;;;;5074277;28;20036;-76
2023/03/23 09:22:55;;;;;;;11.52;9.43;;;15.60;61.60;;;;;;5073945;28;20052;-76
2023/03/23 09:25:25;;;;;;;12.98;9.60;;;15.70;61.40;;;;;;5074184;28;20024;-76
2023/03/23 09:27:59;;;;;;;11.25;9.25;;;15.70;61.40;;;;;;5056477;28;20032;-77
2023/03/23 09:30:30;;;;;;;10.65;8.85;;;15.70;61.30;;;;;;5074059;28;20025;-76
2023/03/23 09:32:57;;;;;;;10.32;8.88;;;15.70;61.20;;;;;;5074064;28;20025;-74
2023/03/23 09:35:24;;;;;;;11.35;9.00;;;15.70;61.10;;;;;;5067776;28;20067;-76
2023/03/23 09:37:51;;;;;;;10.23;8.90;;;15.70;61.00;;;;;;5073708;28;20054;-76
2023/03/23 09:40:31;;;;;;;11.93;9.23;;;15.70;60.90;;;;;;5072777;28;20035;-75
2023/03/23 09:43:15;;;;;;;9.52;8.52;;;15.80;60.90;;;;;;5073947;28;20413;-76
2023/03/23 09:46:07;;;;;;;9.38;8.20;;;15.80;60.80;;;;;;5073954;28;20056;-75
2023/03/23 09:48:53;;;;;;;10.10;7.95;;;15.80;60.70;;;;;;5042688;28;20436;-76
2023/03/23 09:51:27;;;;;;;10.43;7.88;;;15.90;60.50;;;;;;5074023;28;20028;-75
2023/03/23 09:54:01;;;;;;;9.23;7.40;;;15.90;60.40;;;;;;5071564;28;20029;-76
2023/03/23 09:56:30;;;;;;;9.10;7.30;;;16.00;60.30;;;;;;5072314;28;20111;-77
2023/03/23 09:59:17;;;;;;;8.68;7.38;;;16.00;60.20;;;;;;5073800;28;20039;-76
2023/03/23 10:01:48;;;;;;;8.52;7.57;;;16.10;60.00;;;;;;5073780;28;20070;-76
2023/03/23 10:04:28;;;;;;;7.18;6.00;;;16.20;59.90;;;;;;5072705;28;20467;-75
2023/03/23 10:07:06;;;;;;;9.02;6.75;;;16.30;59.60;;;;;;5073883;28;20051;-75
2023/03/23 10:09:31;;;;;;;7.93;6.43;;;16.30;59.40;;;;;;5073927;28;20028;-77
2023/03/23 10:11:57;;;;;;;8.10;6.78;;;16.30;59.30;;;;;;5073701;28;20481;-75
2023/03/23 10:14:47;;;;;;;7.28;6.38;;;16.40;59.30;;;;;;5072772;28;20056;-76
2023/03/23 10:17:26;;;;;;;7.90;6.28;;;16.40;58.90;;;;;;5073307;28;20094;-76
2023/03/23 10:20:14;;;;;;;6.95;6.25;;;16.40;59.00;;;;;;5073362;28;20039;-76
2023/03/23 10:22:57;;;;;;;6.97;6.28;;;16.40;58.80;;;;;;5074077;28;20055;-76
2023/03/23 10:25:28;;;;;;;7.32;5.97;;;16.50;58.70;;;;;;5073754;28;20031;-75
2023/03/23 10:28:10;;;;;;;7.63;6.68;;;16.50;58.70;;;;;;5071805;28;20483;-76
2023/03/23 10:30:56;;;;;;;7.63;6.13;;;16.60;58.60;;;;;;5071582;28;20028;-75
2023/03/23 10:33:29;;;;;;;7.00;6.15;;;16.60;58.20;;;;;;5072140;28;20029;-75
2023/03/23 10:36:04;;;;;;;7.45;6.38;;;16.70;58.40;;;;;;5092828;28;20397;-76
2023/03/23 10:38:36;;;;;;;7.28;5.90;;;16.60;58.20;;;;;;5093480;28;20527;-77
2023/03/23 10:41:11;;;;;;;7.07;6.38;;;16.70;58.20;;;;;;5093731;28;20031;-76
2023/03/23 10:43:37;;;;;;;7.20;6.20;;;16.80;58.10;;;;;;5093374;28;20032;-75
2023/03/23 10:46:13;;;;;;;8.45;6.55;;;16.80;58.00;;;;;;5093422;28;20028;-76
2023/03/23 10:48:39;;;;;;;7.40;6.35;;;16.80;57.90;;;;;;5093904;28;20107;-75
2023/03/23 10:51:11;;;;;;;7.55;6.28;;;16.80;57.80;;;;;;5075096;28;20060;-76
2023/03/23 10:53:43;;;;;;;7.05;6.22;;;17.00;57.80;;;;;;5075086;28;20115;-77
2023/03/23 10:56:39;;;;;;;7.00;6.22;;;17.00;57.60;;;;;;5075198;28;20031;-76
2023/03/23 10:59:33;;;;;;;9.00;6.07;;;17.20;57.30;;;;;;5074786;28;20105;-76
2023/03/23 11:02:05;;;;;;;6.43;5.53;;;17.30;57.10;;;;;;5071905;28;20032;-76
2023/03/23 11:04:32;;;;;;;7.85;5.50;;;17.30;57.20;;;;;;5093921;28;20032;-75
2023/03/23 11:07:01;;;;;;;7.88;6.22;;;17.40;57.00;;;;;;5096804;28;20128;-77
2023/03/23 11:09:38;;;;;;;8.70;6.35;;;17.50;56.80;;;;;;5078543;28;20056;-76
2023/03/23 11:12:04;;;;;;;7.03;5.60;;;17.60;56.70;;;;;;5079059;28;20021;-75
2023/03/23 11:14:32;;;;;;;6.70;5.70;;;17.60;56.60;;;;;;5097148;28;20027;-76
2023/03/23 11:17:01;;;;;;;6.70;5.80;;;17.60;56.50;;;;;;5096707;28;20020;-76
2023/03/23 11:19:33;;;;;;;8.02;6.10;;;17.60;56.40;;;;;;5096848;28;20116;-77
2023/03/23 11:22:13;;;;;;;8.23;5.95;;;17.60;56.30;;;;;;5096292;28;20474;-75
2023/03/23 11:24:45;;;;;;;6.80;6.05;;;17.70;56.80;;;;;;5096874;28;20043;-77
2023/03/23 11:27:12;;;;;;;7.65;5.82;;;17.70;56.20;;;;;;5096867;28;20067;-77
2023/03/23 11:29:55;;;;;;;7.03;5.70;;;17.70;56.10;;;;;;5096452;28;20021;-75
2023/03/23 11:32:28;;;;;;;6.95;5.90;;;17.80;56.00;;;;;;5096606;28;20424;-76
2023/03/23 11:34:59;;;;;;;6.63;5.38;;;17.80;55.90;;;;;;5096734;28;20048;-76
2023/03/23 11:37:36;;;;;;;7.97;5.72;;;17.80;55.80;;;;;;5096827;28;20135;-76
2023/03/23 11:40:11;;;;;;;6.43;5.72;;;17.90;55.70;;;;;;5096358;28;20032;-77
2023/03/23 11:42:50;;;;;;;6.60;5.72;;;17.90;55.60;;;;;;5096315;28;20059;-76
2023/03/23 11:45:22;;;;;;;7.03;5.65;;;17.90;55.50;;;;;;5096625;28;20020;-76
2023/03/23 11:48:11;;;;;;;6.72;5.63;;;18.00;55.50;;;;;;5096318;28;20377;-76
2023/03/23 11:51:09;;;;;;;8.98;5.60;;;18.00;55.20;;;;;;5095910;28;20458;-75
2023/03/23 11:53:40;;;;;;;6.03;5.43;;;18.00;55.00;;;;;;5095449;28;20036;-76
2023/03/23 11:56:25;;;;;;;6.57;5.50;;;18.00;55.10;;;;;;5077984;28;20020;-75
2023/03/23 11:58:53;;;;;;;6.40;5.57;;;18.00;55.10;;;;;;5078131;28;20089;-76
2023/03/23 12:01:36;;;;;;;6.07;5.47;;;18.10;55.10;;;;;;5078000;28;20027;-76
2023/03/23 12:04:30;;;;;;;7.40;5.63;;;18.00;54.80;;;;;;5095964;28;20028;-75
2023/03/23 12:07:18;;;;;;;7.03;5.33;;;18.10;54.60;;;;;;5096189;28;20113;-74
2023/03/23 12:10:03;;;;;;;5.75;5.15;;;18.20;54.60;;;;;;5095419;28;20031;-77
2023/03/23 12:12:38;;;;;;;6.22;5.50;;;18.20;54.70;;;;;;5077713;28;20024;-76
2023/03/23 12:15:45;;;;;;;7.00;5.47;;;18.20;54.60;;;;;;5077887;28;20470;-75
2023/03/23 12:18:42;;;;;;;8.27;5.07;;;18.20;54.20;;;;;;5082063;28;20068;-75
2023/03/23 12:21:45;;;;;;;7.65;5.50;;;18.30;54.40;;;;;;5095878;28;20028;-76
2023/03/23 12:24:27;;;;;;;6.47;5.05;;;18.30;54.10;;;;;;5047663;28;20063;-76
2023/03/23 12:27:07;;;;;;;6.03;5.40;;;18.30;54.20;;;;;;5076926;28;20089;-77
2023/03/23 12:30:20;;;;;;;5.82;4.85;;;18.30;54.20;;;;;;5095561;28;20347;-76
2023/03/23 12:32:56;;;;;;;6.13;5.28;;;18.30;53.90;;;;;;5077173;28;20038;-76
2023/03/23 12:35:40;;;;;;;6.35;5.55;;;18.30;54.10;;;;;;5077076;28;20059;-76
2023/03/23 12:38:25;;;;;;;6.32;5.22;;;18.20;53.90;;;;;;5077173;28;20394;-76
2023/03/23 12:40:58;;;;;;;6.18;4.93;;;18.20;53.80;;;;;;5077778;28;20040;-76
2023/03/23 12:43:24;;;;;;;6.05;4.90;;;18.20;53.90;;;;;;5076973;28;20028;-76
2023/03/23 12:46:03;;;;;;;6.10;5.10;;;18.20;53.90;;;;;;5094925;28;20024;-76
2023/03/23 12:48:39;;;;;;;6.03;5.43;;;18.20;53.80;;;;;;5095748;28;20043;-77
2023/03/23 12:51:26;;;;;;;5.43;4.78;;;18.20;53.90;;;;;;5094918;28;20034;-76